Time;durP1;ratioP1;P1;durP2;ratioP2;P2;SDS_P1;SDS_P2;PMS_P1;PMS_P2;Temp;Humidity;BMP_temperature;BMP_pressure;BME280_temperature;BME280_humidity;BME280_pressure;Samples;Min_cycle;Max_cycle;Signal;HPM_P1;HPM_P2
2021/10/06 00:00:23;;;;;;;1.63;0.20;;;22.40;76.20;;;;;;5125324;28;20024;-36
2021/10/06 00:02:50;;;;;;;0.20;0.20;;;22.40;76.00;;;;;;5125558;28;20028;-37
2021/10/06 00:05:16;;;;;;;0.30;0.20;;;22.40;76.00;;;;;;5118080;28;20023;-36
2021/10/06 00:07:42;;;;;;;0.20;0.20;;;22.40;75.90;;;;;;5125669;27;20080;-36
2021/10/06 00:10:08;;;;;;;0.52;0.30;;;22.40;75.90;;;;;;5134175;27;20075;-36
2021/10/06 00:12:35;;;;;;;0.63;0.30;;;22.40;75.90;;;;;;5125312;28;20032;-36
2021/10/06 00:15:01;;;;;;;0.50;0.32;;;22.40;75.90;;;;;;5125115;28;20039;-37
2021/10/06 00:17:28;;;;;;;0.70;0.40;;;22.40;75.80;;;;;;5125318;28;20024;-37
2021/10/06 00:19:54;;;;;;;0.57;0.22;;;22.40;75.90;;;;;;5125054;28;20050;-36
2021/10/06 00:22:24;;;;;;;0.50;0.32;;;22.40;75.90;;;;;;5120092;28;20019;-37
2021/10/06 00:24:50;;;;;;;0.93;0.32;;;22.40;75.90;;;;;;5125084;28;20028;-37
2021/10/06 00:27:16;;;;;;;0.57;0.30;;;22.40;76.00;;;;;;5125237;28;20073;-37
2021/10/06 00:29:42;;;;;;;0.20;0.20;;;22.40;76.00;;;;;;5124761;28;20035;-37
2021/10/06 00:32:09;;;;;;;0.20;0.20;;;22.40;76.10;;;;;;5124859;28;20047;-37
2021/10/06 00:34:35;;;;;;;0.82;0.30;;;22.40;76.10;;;;;;5124123;28;20083;-37
2021/10/06 00:37:01;;;;;;;0.28;0.20;;;22.40;76.00;;;;;;5124710;28;20076;-37
2021/10/06 00:39:27;;;;;;;0.30;0.30;;;22.40;76.00;;;;;;5121192;28;20434;-37
2021/10/06 00:41:53;;;;;;;0.40;0.38;;;22.40;76.00;;;;;;5124897;28;20060;-37
2021/10/06 00:44:20;;;;;;;0.63;0.40;;;22.40;76.00;;;;;;5124722;28;20032;-37
2021/10/06 00:46:47;;;;;;;0.22;0.22;;;22.40;75.90;;;;;;5125001;28;20043;-43
2021/10/06 00:49:19;;;;;;;0.85;0.30;;;22.40;75.90;;;;;;5124256;28;20063;-43
2021/10/06 00:51:45;;;;;;;0.82;0.30;;;22.40;75.80;;;;;;5118081;28;20051;-40
2021/10/06 00:54:11;;;;;;;0.32;0.20;;;22.40;75.80;;;;;;5104020;28;20101;-39
2021/10/06 00:56:37;;;;;;;0.30;0.30;;;22.40;75.80;;;;;;5103962;28;20582;-38
2021/10/06 00:59:03;;;;;;;0.65;0.40;;;22.40;75.80;;;;;;5103567;28;20021;-35
2021/10/06 01:01:30;;;;;;;1.98;0.28;;;22.40;75.80;;;;;;5110339;28;20062;-35
2021/10/06 01:03:56;;;;;;;0.60;0.38;;;22.40;76.00;;;;;;5104188;28;20020;-36
2021/10/06 01:06:22;;;;;;;0.50;0.28;;;22.40;75.90;;;;;;5105650;28;20035;-39
2021/10/06 01:08:48;;;;;;;0.40;0.40;;;22.40;75.90;;;;;;5126987;27;20439;-37
2021/10/06 01:11:14;;;;;;;2.22;0.40;;;22.40;76.00;;;;;;5131633;27;20090;-36
2021/10/06 01:13:40;;;;;;;0.45;0.38;;;22.40;76.10;;;;;;5089019;28;20020;-36
2021/10/06 01:16:07;;;;;;;0.73;0.30;;;22.40;76.00;;;;;;5105948;28;20023;-36
2021/10/06 01:18:33;;;;;;;1.60;0.40;;;22.40;76.20;;;;;;5122980;28;20690;-36
2021/10/06 01:21:16;;;;;;;0.47;0.30;;;22.40;76.90;;;;;;5123856;28;20032;-37
2021/10/06 01:23:43;;;;;;;0.45;0.40;;;22.40;76.10;;;;;;5103769;28;20028;-37
2021/10/06 01:26:10;;;;;;;1.35;0.40;;;22.40;76.10;;;;;;5115487;28;20037;-36
2021/10/06 01:28:36;;;;;;;1.42;0.32;;;22.40;76.00;;;;;;5123978;28;20055;-36
2021/10/06 01:31:02;;;;;;;0.90;0.37;;;22.40;76.10;;;;;;5123807;28;20020;-36
2021/10/06 01:33:30;;;;;;;0.40;0.40;;;22.40;76.00;;;;;;5124032;28;20830;-36
2021/10/06 01:35:55;;;;;;;;;;;22.40;76.00;;;;;;5124490;28;20486;-36
2021/10/06 01:38:22;;;;;;;0.40;0.30;;;22.40;75.90;;;;;;5123687;28;19904;-36
2021/10/06 01:40:48;;;;;;;4.47;1.48;;;22.40;76.00;;;;;;5143613;27;20046;-36
2021/10/06 01:43:14;;;;;;;0.90;0.30;;;22.40;76.00;;;;;;5123773;27;20032;-36
2021/10/06 01:45:41;;;;;;;1.52;0.45;;;22.40;76.00;;;;;;5123120;28;20028;-36
2021/10/06 01:48:10;;;;;;;0.55;0.40;;;22.40;76.10;;;;;;5105608;28;20028;-37
2021/10/06 01:50:45;;;;;;;0.45;0.40;;;22.40;76.20;;;;;;5123431;28;20039;-36
2021/10/06 01:53:13;;;;;;;0.90;0.40;;;22.40;76.20;;;;;;5123364;28;20031;-36
2021/10/06 01:55:39;;;;;;;0.50;0.30;;;22.40;76.20;;;;;;5123497;28;20058;-36
2021/10/06 01:58:09;;;;;;;0.40;0.40;;;22.40;76.10;;;;;;5123741;28;20118;-36
2021/10/06 02:00:36;;;;;;;0.80;0.40;;;22.40;76.10;;;;;;5123379;28;20023;-37
2021/10/06 02:03:02;;;;;;;2.70;0.50;;;22.40;76.10;;;;;;5123489;28;20023;-36
2021/10/06 02:05:28;;;;;;;3.22;0.30;;;22.40;76.20;;;;;;5123541;28;20028;-36
2021/10/06 02:07:54;;;;;;;0.85;0.47;;;22.40;76.10;;;;;;5123386;28;20031;-36
2021/10/06 02:10:20;;;;;;;0.60;0.40;;;22.40;76.10;;;;;;5139195;27;20031;-36
2021/10/06 02:12:47;;;;;;;2.88;0.40;;;22.40;76.10;;;;;;5143981;27;20507;-36
2021/10/06 02:15:13;;;;;;;0.60;0.50;;;22.40;76.10;;;;;;5125429;27;20050;-37
2021/10/06 02:17:39;;;;;;;1.30;0.40;;;22.40;76.20;;;;;;5144058;27;20083;-36
2021/10/06 02:20:05;;;;;;;3.40;0.40;;;22.40;76.20;;;;;;5143613;27;20019;-37
2021/10/06 02:22:32;;;;;;;0.40;0.40;;;22.40;76.10;;;;;;5130695;28;20396;-36
2021/10/06 02:24:58;;;;;;;0.88;0.40;;;22.40;76.20;;;;;;5123093;28;20032;-36
2021/10/06 02:27:24;;;;;;;1.67;0.60;;;22.40;76.10;;;;;;5123193;28;20070;-37
2021/10/06 02:29:50;;;;;;;0.40;0.30;;;22.40;76.20;;;;;;5122985;28;20484;-36
2021/10/06 02:32:16;;;;;;;0.65;0.30;;;22.40;76.10;;;;;;5123048;28;20036;-37
2021/10/06 02:34:42;;;;;;;0.88;0.50;;;22.40;76.20;;;;;;5123140;28;20039;-36
2021/10/06 02:37:08;;;;;;;0.38;0.35;;;22.40;76.20;;;;;;5122953;28;20024;-37
2021/10/06 02:39:35;;;;;;;0.50;0.47;;;22.40;76.20;;;;;;5122873;28;20588;-36
2021/10/06 02:42:01;;;;;;;0.57;0.47;;;22.40;76.20;;;;;;5122800;28;20031;-36
2021/10/06 02:44:27;;;;;;;0.50;0.50;;;22.40;76.20;;;;;;5123119;28;20023;-36
2021/10/06 02:46:53;;;;;;;0.93;0.60;;;22.40;76.20;;;;;;5122863;28;20043;-36
2021/10/06 02:49:19;;;;;;;0.47;0.35;;;22.40;76.20;;;;;;5103019;28;20071;-37
2021/10/06 02:51:45;;;;;;;0.90;0.50;;;22.40;76.20;;;;;;5115082;28;20028;-37
2021/10/06 02:54:11;;;;;;;1.42;0.60;;;22.40;76.10;;;;;;5143341;28;20052;-37
2021/10/06 02:56:38;;;;;;;0.30;0.30;;;22.40;76.20;;;;;;5144825;27;20104;-36
2021/10/06 02:59:04;;;;;;;0.50;0.50;;;22.40;76.20;;;;;;5147750;27;20031;-36
2021/10/06 03:01:30;;;;;;;2.47;0.60;;;22.40;76.20;;;;;;5147379;27;20785;-37
2021/10/06 03:03:56;;;;;;;0.52;0.52;;;22.40;76.20;;;;;;5147658;27;20042;-37
2021/10/06 03:06:22;;;;;;;1.17;0.40;;;22.40;76.20;;;;;;5147762;27;20023;-36
2021/10/06 03:08:48;;;;;;;0.80;0.73;;;22.40;76.20;;;;;;5143987;27;20103;-36
2021/10/06 03:11:14;;;;;;;0.43;0.43;;;22.40;76.20;;;;;;5120931;28;20031;-36
2021/10/06 03:13:41;;;;;;;0.60;0.40;;;22.40;76.30;;;;;;5106365;28;20032;-36
2021/10/06 03:16:07;;;;;;;0.73;0.63;;;22.40;76.30;;;;;;5106013;28;20050;-37
2021/10/06 03:18:33;;;;;;;0.77;0.60;;;22.30;76.20;;;;;;5106174;28;20031;-36
2021/10/06 03:20:59;;;;;;;1.50;0.80;;;22.40;76.20;;;;;;5106068;28;20032;-36
2021/10/06 03:23:25;;;;;;;0.80;0.68;;;22.40;76.30;;;;;;5126458;28;20020;-36
2021/10/06 03:25:51;;;;;;;1.60;0.82;;;22.40;76.20;;;;;;5126518;28;20031;-36
2021/10/06 03:28:18;;;;;;;0.60;0.60;;;22.30;76.20;;;;;;5126491;28;20032;-37
2021/10/06 03:30:44;;;;;;;1.73;0.70;;;22.30;76.20;;;;;;5126110;28;20028;-36
2021/10/06 03:33:11;;;;;;;1.00;0.60;;;22.40;76.20;;;;;;5126270;28;20103;-36
2021/10/06 03:35:37;;;;;;;0.52;0.52;;;22.30;76.20;;;;;;5126344;28;20459;-36
2021/10/06 03:38:03;;;;;;;0.80;0.80;;;22.30;76.20;;;;;;5125979;28;20035;-36
2021/10/06 03:40:29;;;;;;;0.50;0.50;;;22.30;76.20;;;;;;5143691;27;20492;-37
2021/10/06 03:42:55;;;;;;;1.98;0.73;;;22.30;76.20;;;;;;5146810;27;20034;-36
2021/10/06 03:45:21;;;;;;;1.20;0.80;;;22.30;76.30;;;;;;5146818;27;20023;-36
2021/10/06 03:47:47;;;;;;;0.63;0.63;;;22.30;76.20;;;;;;5146692;27;20034;-36
2021/10/06 03:50:14;;;;;;;1.80;0.70;;;22.30;76.20;;;;;;5146603;27;20063;-36
2021/10/06 03:52:41;;;;;;;0.70;0.70;;;22.30;76.20;;;;;;5132073;27;20027;-37
2021/10/06 03:55:08;;;;;;;1.92;0.68;;;22.30;76.20;;;;;;5125929;28;20047;-37
2021/10/06 03:57:34;;;;;;;;;;;22.30;76.30;;;;;;5126453;28;20019;-36
2021/10/06 04:00:00;;;;;;;1.05;0.80;;;22.30;76.20;;;;;;5126052;28;19904;-36
2021/10/06 04:02:26;;;;;;;1.08;0.82;;;22.30;76.30;;;;;;5125806;28;20039;-37
2021/10/06 04:04:52;;;;;;;1.00;0.90;;;22.30;77.00;;;;;;5125871;28;20016;-36
2021/10/06 04:07:18;;;;;;;1.77;1.13;;;22.30;76.20;;;;;;5125653;28;20028;-36
2021/10/06 04:09:44;;;;;;;0.80;0.80;;;22.30;76.30;;;;;;5136799;27;20034;-36
2021/10/06 04:12:11;;;;;;;1.45;0.80;;;22.30;76.20;;;;;;5146049;27;20075;-36
2021/10/06 04:14:37;;;;;;;1.33;0.73;;;22.30;76.20;;;;;;5146088;27;20023;-36
2021/10/06 04:17:03;;;;;;;1.67;1.00;;;22.30;76.20;;;;;;5146025;27;20058;-36
2021/10/06 04:19:29;;;;;;;1.60;0.82;;;22.30;76.30;;;;;;5146381;27;20037;-36
2021/10/06 04:21:55;;;;;;;0.80;0.80;;;22.30;76.30;;;;;;5138091;27;20024;-36
2021/10/06 04:24:21;;;;;;;2.75;0.93;;;22.30;76.30;;;;;;5125378;28;20086;-37
2021/10/06 04:26:47;;;;;;;0.95;0.95;;;22.30;76.30;;;;;;5125227;28;20087;-36
2021/10/06 04:29:14;;;;;;;1.05;0.80;;;22.30;76.20;;;;;;5125338;28;20043;-36
2021/10/06 04:31:40;;;;;;;1.05;0.80;;;22.30;76.30;;;;;;5125223;28;20079;-37
2021/10/06 04:34:06;;;;;;;0.88;0.88;;;22.30;76.20;;;;;;5125004;28;20027;-36
2021/10/06 04:36:32;;;;;;;0.73;0.70;;;22.30;76.30;;;;;;5125280;28;20028;-36
2021/10/06 04:38:59;;;;;;;1.02;1.00;;;22.30;76.30;;;;;;5124895;28;20050;-37
2021/10/06 04:41:25;;;;;;;0.90;0.80;;;22.30;76.30;;;;;;5125145;28;20110;-38
2021/10/06 04:43:51;;;;;;;1.10;0.90;;;22.30;76.30;;;;;;5124954;28;20031;-37
2021/10/06 04:46:19;;;;;;;0.90;0.75;;;22.30;76.30;;;;;;5124787;28;20024;-37
2021/10/06 04:48:47;;;;;;;;;;;22.30;76.30;;;;;;5111591;28;20036;-36
2021/10/06 04:51:14;;;;;;;0.80;0.80;;;22.30;76.20;;;;;;5108128;27;19916;-36
2021/10/06 04:53:40;;;;;;;0.80;0.80;;;22.30;76.30;;;;;;5145001;27;20026;-37
2021/10/06 04:56:06;;;;;;;0.98;0.88;;;22.30;76.40;;;;;;5145459;27;20039;-44
2021/10/06 04:58:32;;;;;;;1.35;0.90;;;22.30;76.40;;;;;;5145585;27;20015;-36
2021/10/06 05:00:59;;;;;;;1.38;1.23;;;22.30;76.40;;;;;;5145282;27;20494;-36
2021/10/06 05:03:25;;;;;;;1.33;1.15;;;22.30;76.40;;;;;;5144978;27;20027;-36
2021/10/06 05:05:51;;;;;;;0.93;0.90;;;22.30;76.40;;;;;;5145079;27;20834;-36
2021/10/06 05:08:17;;;;;;;0.90;0.90;;;22.30;76.50;;;;;;5145162;27;20060;-37
2021/10/06 05:10:43;;;;;;;1.60;1.00;;;22.30;76.50;;;;;;5145148;27;20065;-36
2021/10/06 05:13:09;;;;;;;1.33;1.00;;;22.30;76.50;;;;;;5144937;27;20032;-36
2021/10/06 05:15:35;;;;;;;1.30;1.10;;;22.30;76.50;;;;;;5144803;27;20019;-37
2021/10/06 05:18:02;;;;;;;2.40;1.10;;;22.30;76.50;;;;;;5126828;27;20091;-36
2021/10/06 05:20:28;;;;;;;0.95;0.95;;;22.30;76.50;;;;;;5123788;28;20023;-37
2021/10/06 05:22:54;;;;;;;0.90;0.90;;;22.30;76.40;;;;;;5140185;27;20031;-36
2021/10/06 05:25:23;;;;;;;1.08;1.00;;;22.30;76.50;;;;;;5144761;27;20027;-37
2021/10/06 05:27:50;;;;;;;1.17;1.08;;;22.30;76.50;;;;;;5144788;27;20027;-36
2021/10/06 05:30:16;;;;;;;1.00;0.82;;;22.30;76.40;;;;;;5144635;27;20046;-36
2021/10/06 05:32:42;;;;;;;0.90;0.90;;;22.30;76.50;;;;;;5127876;27;20028;-36
2021/10/06 05:35:09;;;;;;;1.20;1.10;;;22.30;76.50;;;;;;5124149;28;20119;-36
2021/10/06 05:37:35;;;;;;;2.07;1.20;;;22.30;76.50;;;;;;5124046;28;20019;-36
2021/10/06 05:40:02;;;;;;;1.85;1.27;;;22.30;76.50;;;;;;5123944;28;20357;-36
2021/10/06 05:42:28;;;;;;;;;;;22.30;76.50;;;;;;5124463;28;20038;-36
2021/10/06 05:44:54;;;;;;;1.30;1.20;;;22.30;76.50;;;;;;5123512;28;19907;-36
2021/10/06 05:47:20;;;;;;;1.23;0.80;;;22.30;76.40;;;;;;5124135;28;20076;-36
2021/10/06 05:49:46;;;;;;;0.80;0.80;;;22.30;76.60;;;;;;5123808;28;20035;-36
2021/10/06 05:52:12;;;;;;;0.88;0.88;;;22.30;76.50;;;;;;5134077;27;20027;-36
2021/10/06 05:54:39;;;;;;;1.00;1.00;;;22.30;76.50;;;;;;5143743;27;20146;-37
2021/10/06 05:57:05;;;;;;;2.45;1.15;;;22.30;76.50;;;;;;5144469;27;20075;-36
2021/10/06 05:59:31;;;;;;;0.90;0.90;;;22.30;76.50;;;;;;5144500;27;20082;-36
2021/10/06 06:01:58;;;;;;;1.00;0.90;;;22.30;76.50;;;;;;5113531;27;20031;-36
2021/10/06 06:04:25;;;;;;;1.30;1.10;;;22.30;76.60;;;;;;5102820;28;20089;-36
2021/10/06 06:06:51;;;;;;;;;;;22.30;76.50;;;;;;5103621;28;20016;-36
2021/10/06 06:09:20;;;;;;;1.10;0.90;;;22.30;76.50;;;;;;5102910;28;19920;-37
2021/10/06 06:11:50;;;;;;;1.23;1.05;;;22.30;76.50;;;;;;5103283;28;20020;-36
2021/10/06 06:14:16;;;;;;;1.10;1.00;;;22.30;76.90;;;;;;5102929;28;20035;-36
2021/10/06 06:16:43;;;;;;;0.82;0.82;;;22.30;76.50;;;;;;5102969;28;20035;-36
2021/10/06 06:19:09;;;;;;;1.40;1.10;;;22.30;76.60;;;;;;5103100;28;20028;-36
2021/10/06 06:21:35;;;;;;;1.52;1.33;;;22.30;76.50;;;;;;5112841;28;20273;-36
2021/10/06 06:24:01;;;;;;;1.05;0.90;;;22.30;76.50;;;;;;5143489;27;20030;-36
2021/10/06 06:26:27;;;;;;;1.50;1.00;;;22.30;76.60;;;;;;5125615;28;20095;-37
2021/10/06 06:28:53;;;;;;;0.98;0.90;;;22.30;76.50;;;;;;5143974;28;20073;-37
2021/10/06 06:31:20;;;;;;;1.02;0.93;;;22.30;76.50;;;;;;5142921;27;20030;-37
2021/10/06 06:33:46;;;;;;;1.48;1.00;;;22.30;76.50;;;;;;5143611;28;20749;-38
2021/10/06 06:36:12;;;;;;;1.95;1.00;;;22.30;76.50;;;;;;5144064;28;20054;-37
2021/10/06 06:38:38;;;;;;;1.10;1.00;;;22.30;76.60;;;;;;5141998;28;20055;-37
2021/10/06 06:41:05;;;;;;;1.05;1.00;;;22.30;76.50;;;;;;5116932;28;20023;-37
2021/10/06 06:43:31;;;;;;;1.10;1.00;;;22.30;76.50;;;;;;5102770;28;20056;-37
2021/10/06 06:45:57;;;;;;;0.98;0.98;;;22.30;76.50;;;;;;5102531;28;20020;-37
2021/10/06 06:48:23;;;;;;;0.98;0.90;;;22.30;76.60;;;;;;5115610;28;20089;-37
2021/10/06 06:50:53;;;;;;;0.98;0.90;;;22.30;76.60;;;;;;5123101;28;20042;-37
2021/10/06 06:53:27;;;;;;;1.15;0.90;;;22.30;76.50;;;;;;5105364;28;20539;-37
2021/10/06 06:55:56;;;;;;;0.88;0.88;;;22.30;76.50;;;;;;5122432;28;20060;-37
2021/10/06 06:58:23;;;;;;;1.17;1.08;;;22.30;76.60;;;;;;5122982;28;20028;-37
2021/10/06 07:00:49;;;;;;;0.80;0.80;;;22.30;76.50;;;;;;5122960;28;20035;-37
2021/10/06 07:03:18;;;;;;;1.15;1.05;;;22.30;76.50;;;;;;5123120;28;20023;-37
2021/10/06 07:05:45;;;;;;;1.00;0.90;;;22.30;76.50;;;;;;5122840;28;20030;-37
2021/10/06 07:08:11;;;;;;;1.00;1.00;;;22.30;76.50;;;;;;5122956;28;20051;-37
2021/10/06 07:10:37;;;;;;;0.97;0.97;;;22.30;76.60;;;;;;5120931;28;20090;-37
2021/10/06 07:13:04;;;;;;;1.00;1.00;;;22.30;76.50;;;;;;5123106;28;20395;-37
2021/10/06 07:15:30;;;;;;;2.45;1.20;;;22.30;76.60;;;;;;5122505;28;20024;-37
2021/10/06 07:17:57;;;;;;;1.15;1.10;;;22.30;76.50;;;;;;5132325;28;20023;-38
2021/10/06 07:20:23;;;;;;;1.02;1.00;;;22.30;76.50;;;;;;5143254;28;20023;-37
2021/10/06 07:22:49;;;;;;;1.10;1.00;;;22.30;76.50;;;;;;5143464;28;20150;-37
2021/10/06 07:25:19;;;;;;;1.30;1.10;;;22.30;76.60;;;;;;5123452;28;20393;-37
2021/10/06 07:27:45;;;;;;;0.80;0.80;;;22.30;76.60;;;;;;5122849;28;20032;-37
2021/10/06 07:30:12;;;;;;;1.20;0.90;;;22.30;76.70;;;;;;5104102;28;20371;-37
2021/10/06 07:32:38;;;;;;;0.93;0.80;;;22.30;76.00;;;;;;5122621;28;20028;-37
2021/10/06 07:35:05;;;;;;;1.10;0.85;;;22.30;76.70;;;;;;5122361;28;20039;-37
2021/10/06 07:37:31;;;;;;;0.88;0.85;;;22.30;76.70;;;;;;5122502;28;20019;-37
2021/10/06 07:39:57;;;;;;;1.10;1.00;;;22.30;76.70;;;;;;5135678;28;20799;-37
2021/10/06 07:42:23;;;;;;;2.67;1.00;;;22.30;76.70;;;;;;5144045;27;20845;-37
2021/10/06 07:44:49;;;;;;;0.93;0.70;;;22.30;76.70;;;;;;5146578;27;20023;-37
2021/10/06 07:47:16;;;;;;;0.88;0.88;;;22.30;76.80;;;;;;5143010;27;20416;-37
2021/10/06 07:49:42;;;;;;;0.90;0.90;;;22.30;76.70;;;;;;5126082;28;20059;-37
2021/10/06 07:52:10;;;;;;;1.05;0.95;;;22.30;76.80;;;;;;5126256;28;20030;-37
2021/10/06 07:54:38;;;;;;;1.20;0.80;;;22.30;76.70;;;;;;5125610;28;20530;-37
2021/10/06 07:57:03;;;;;;;;;;;22.30;76.80;;;;;;5126539;28;20031;-37
2021/10/06 07:59:30;;;;;;;0.80;0.77;;;22.30;76.70;;;;;;5125709;28;19950;-37
2021/10/06 08:01:56;;;;;;;0.90;0.90;;;22.30;76.70;;;;;;5125900;28;20035;-37
2021/10/06 08:04:24;;;;;;;1.65;0.82;;;22.30;76.70;;;;;;5125832;28;20036;-40
2021/10/06 08:06:50;;;;;;;0.82;0.70;;;22.30;76.70;;;;;;5125447;28;20030;-37
2021/10/06 08:09:16;;;;;;;1.38;1.00;;;22.30;76.80;;;;;;5125895;28;20031;-37
2021/10/06 08:11:43;;;;;;;0.90;0.90;;;22.30;76.70;;;;;;5125767;28;20024;-37
2021/10/06 08:14:09;;;;;;;0.90;0.90;;;22.30;76.80;;;;;;5125642;28;20036;-37
2021/10/06 08:16:35;;;;;;;0.80;0.80;;;22.30;76.70;;;;;;5125258;28;20023;-37
2021/10/06 08:19:01;;;;;;;1.65;1.10;;;22.30;76.70;;;;;;5144199;27;20145;-37
2021/10/06 08:21:27;;;;;;;0.90;0.90;;;22.30;76.80;;;;;;5139310;27;20023;-37
2021/10/06 08:23:53;;;;;;;1.23;0.85;;;22.30;76.90;;;;;;5125532;28;20024;-37
2021/10/06 08:26:20;;;;;;;1.17;1.00;;;22.30;76.70;;;;;;5124871;28;20032;-37
2021/10/06 08:28:46;;;;;;;1.13;0.87;;;22.30;76.80;;;;;;5125385;28;20058;-37
2021/10/06 08:31:12;;;;;;;1.33;0.65;;;22.30;76.80;;;;;;5125310;28;20065;-37
2021/10/06 08:33:38;;;;;;;1.02;0.90;;;22.30;76.80;;;;;;5125249;28;20693;-37
2021/10/06 08:36:04;;;;;;;1.13;1.02;;;22.20;76.90;;;;;;5124723;28;20020;-37
2021/10/06 08:38:30;;;;;;;1.15;0.93;;;22.20;76.80;;;;;;5125083;28;20019;-37
2021/10/06 08:40:57;;;;;;;0.60;0.60;;;22.30;77.00;;;;;;5125096;28;20023;-37
2021/10/06 08:43:23;;;;;;;1.13;0.90;;;22.20;76.90;;;;;;5075294;28;20020;-37
2021/10/06 08:45:49;;;;;;;0.73;0.73;;;22.20;76.90;;;;;;5104223;28;20058;-37
2021/10/06 08:48:15;;;;;;;1.10;0.90;;;22.20;76.80;;;;;;5104494;28;20039;-37
2021/10/06 08:50:42;;;;;;;1.10;1.00;;;22.30;76.90;;;;;;5104326;28;20508;-37
2021/10/06 08:53:08;;;;;;;1.20;0.90;;;22.20;76.80;;;;;;5104178;28;20032;-37
2021/10/06 08:55:34;;;;;;;0.80;0.80;;;22.20;76.80;;;;;;5103097;28;20044;-37
2021/10/06 08:58:05;;;;;;;1.33;0.93;;;22.20;76.80;;;;;;5104272;28;20043;-37
2021/10/06 09:00:49;;;;;;;0.70;0.70;;;22.30;76.90;;;;;;5104144;28;20031;-37
2021/10/06 09:03:15;;;;;;;1.40;0.88;;;22.20;76.80;;;;;;5104091;28;20024;-37
2021/10/06 09:05:41;;;;;;;0.80;0.80;;;22.20;76.90;;;;;;5085774;28;20096;-37
2021/10/06 09:08:08;;;;;;;0.80;0.80;;;22.20;76.90;;;;;;5104151;28;20031;-37
2021/10/06 09:10:35;;;;;;;;;;;22.20;76.90;;;;;;5122374;28;20067;-37
2021/10/06 09:13:07;;;;;;;0.82;0.82;;;22.20;76.90;;;;;;5124501;28;20332;-37
2021/10/06 09:15:44;;;;;;;1.20;1.10;;;22.20;76.90;;;;;;5113772;28;20531;-37
2021/10/06 09:18:18;;;;;;;1.10;1.00;;;22.20;76.90;;;;;;5104011;28;20032;-37
2021/10/06 09:20:44;;;;;;;1.88;0.73;;;22.20;76.90;;;;;;5105160;28;20031;-37
2021/10/06 09:23:12;;;;;;;2.33;1.00;;;22.20;76.90;;;;;;5123972;28;20020;-37
2021/10/06 09:25:51;;;;;;;1.08;0.90;;;22.20;77.00;;;;;;5105645;28;20024;-37
2021/10/06 09:28:26;;;;;;;1.05;0.90;;;22.20;76.90;;;;;;5123934;28;20123;-37
2021/10/06 09:30:53;;;;;;;0.80;0.80;;;22.20;76.80;;;;;;5123916;28;20042;-37
2021/10/06 09:33:20;;;;;;;0.80;0.80;;;22.20;76.90;;;;;;5123659;28;20019;-37
2021/10/06 09:35:50;;;;;;;1.00;0.90;;;22.20;76.80;;;;;;5123855;28;20031;-37
2021/10/06 09:38:16;;;;;;;1.00;1.00;;;22.20;76.80;;;;;;5105586;28;20103;-37
2021/10/06 09:40:42;;;;;;;1.00;0.90;;;22.20;76.70;;;;;;5143096;27;20090;-37
2021/10/06 09:43:08;;;;;;;0.80;0.80;;;22.20;76.80;;;;;;5144446;27;20072;-37
2021/10/06 09:45:35;;;;;;;1.00;0.90;;;22.20;76.80;;;;;;5144201;27;20038;-37
2021/10/06 09:48:10;;;;;;;0.77;0.68;;;22.20;76.80;;;;;;5144018;27;20027;-37
2021/10/06 09:50:44;;;;;;;0.73;0.73;;;22.20;76.90;;;;;;5144244;27;20051;-37
2021/10/06 09:53:14;;;;;;;0.88;0.80;;;22.20;76.90;;;;;;5123828;27;20026;-37
2021/10/06 09:55:45;;;;;;;1.70;0.88;;;22.20;76.90;;;;;;5123113;28;20119;-37
2021/10/06 09:58:11;;;;;;;1.10;0.82;;;22.20;76.90;;;;;;5123281;28;20020;-37
2021/10/06 10:00:40;;;;;;;1.00;0.90;;;22.20;77.00;;;;;;5123345;28;20123;-37
2021/10/06 10:03:07;;;;;;;0.90;0.88;;;22.20;76.90;;;;;;5123568;28;20030;-37
2021/10/06 10:05:34;;;;;;;0.97;0.93;;;22.20;76.90;;;;;;5123290;28;20054;-37
2021/10/06 10:08:02;;;;;;;0.80;0.80;;;22.20;76.90;;;;;;5123147;28;20081;-37
2021/10/06 10:10:29;;;;;;;0.93;0.90;;;22.20;76.90;;;;;;5106065;28;20036;-37
2021/10/06 10:12:55;;;;;;;0.80;0.80;;;22.20;76.90;;;;;;5101692;28;20038;-37
2021/10/06 10:15:21;;;;;;;0.85;0.70;;;22.20;76.90;;;;;;5101508;28;20031;-37
2021/10/06 10:17:58;;;;;;;1.30;0.90;;;22.20;76.90;;;;;;5102828;28;20112;-37
2021/10/06 10:20:25;;;;;;;0.73;0.73;;;22.20;76.90;;;;;;5102698;28;20028;-37
2021/10/06 10:23:01;;;;;;;0.80;0.70;;;22.20;76.90;;;;;;5120376;28;20128;-37
2021/10/06 10:25:29;;;;;;;0.93;0.93;;;22.20;76.90;;;;;;5123114;28;20027;-37
2021/10/06 10:28:09;;;;;;;1.23;0.80;;;22.20;77.00;;;;;;5122879;28;20024;-37
2021/10/06 10:30:37;;;;;;;0.70;0.70;;;22.20;76.90;;;;;;5122720;28;20040;-37
2021/10/06 10:33:03;;;;;;;1.15;0.80;;;22.20;76.90;;;;;;5123120;28;20020;-37
2021/10/06 10:35:40;;;;;;;2.45;0.82;;;22.20;76.90;;;;;;5123093;28;20020;-37
2021/10/06 10:38:08;;;;;;;0.75;0.75;;;22.20;76.90;;;;;;5122654;28;20040;-37
2021/10/06 10:40:36;;;;;;;1.60;1.00;;;22.20;76.90;;;;;;5120372;28;20024;-37
2021/10/06 10:43:24;;;;;;;0.90;0.90;;;22.20;76.90;;;;;;5122932;28;20032;-37
2021/10/06 10:46:11;;;;;;;0.73;0.73;;;22.20;76.90;;;;;;5122993;28;20030;-37
2021/10/06 10:49:03;;;;;;;0.80;0.80;;;22.20;76.90;;;;;;5122805;28;20023;-38
2021/10/06 10:51:43;;;;;;;0.80;0.80;;;22.20;77.00;;;;;;5105001;28;20095;-38
2021/10/06 10:54:11;;;;;;;1.27;0.93;;;22.20;76.90;;;;;;5122610;28;20051;-38
2021/10/06 10:56:41;;;;;;;1.35;0.80;;;22.20;77.00;;;;;;5122845;28;20111;-37
2021/10/06 10:59:12;;;;;;;1.23;0.80;;;22.20;76.90;;;;;;5122278;28;20032;-38
2021/10/06 11:01:40;;;;;;;0.88;0.80;;;22.20;77.10;;;;;;5105009;28;20031;-38
2021/10/06 11:04:10;;;;;;;0.80;0.80;;;22.20;77.00;;;;;;5122821;28;20124;-37
2021/10/06 11:06:36;;;;;;;0.80;0.73;;;22.20;77.00;;;;;;5122640;28;20020;-38
2021/10/06 11:09:29;;;;;;;0.73;0.70;;;22.20;77.00;;;;;;5119145;28;20088;-37
2021/10/06 11:12:18;;;;;;;1.88;0.88;;;22.20;77.10;;;;;;5085952;28;20028;-37
2021/10/06 11:14:45;;;;;;;0.70;0.70;;;22.20;77.10;;;;;;5092156;28;20059;-37
2021/10/06 11:17:19;;;;;;;1.00;0.90;;;22.20;77.10;;;;;;5102380;28;20042;-37
2021/10/06 11:19:48;;;;;;;1.23;1.13;;;22.20;77.20;;;;;;5105797;28;20039;-37
2021/10/06 11:22:23;;;;;;;0.93;0.80;;;22.20;77.20;;;;;;5118032;28;20052;-37
2021/10/06 11:24:50;;;;;;;1.02;0.90;;;22.20;77.10;;;;;;5126413;28;20045;-37
2021/10/06 11:27:16;;;;;;;1.60;0.90;;;22.20;77.20;;;;;;5126087;28;20779;-36
2021/10/06 11:29:52;;;;;;;0.70;0.70;;;22.20;77.20;;;;;;5125944;28;20707;-37
2021/10/06 11:32:18;;;;;;;0.70;0.63;;;22.20;77.10;;;;;;5126235;28;20038;-37
2021/10/06 11:34:49;;;;;;;1.42;0.80;;;22.20;77.20;;;;;;5126020;28;20050;-37
2021/10/06 11:37:23;;;;;;;0.90;0.80;;;22.20;77.10;;;;;;5125912;28;20051;-37
2021/10/06 11:39:49;;;;;;;0.70;0.70;;;22.20;77.20;;;;;;5125967;28;20065;-37
2021/10/06 11:42:16;;;;;;;0.80;0.80;;;22.20;77.10;;;;;;5126150;28;20028;-37
2021/10/06 11:44:42;;;;;;;0.82;0.80;;;22.20;77.10;;;;;;5107686;28;20028;-37
2021/10/06 11:47:09;;;;;;;2.83;0.95;;;22.20;77.20;;;;;;5125919;28;20031;-37
2021/10/06 11:49:37;;;;;;;0.57;0.57;;;22.20;77.00;;;;;;5125560;28;20036;-37
2021/10/06 11:52:04;;;;;;;0.90;0.80;;;22.20;77.20;;;;;;5125659;28;20563;-37
2021/10/06 11:54:31;;;;;;;1.05;0.90;;;22.20;77.30;;;;;;5125539;28;20047;-37
2021/10/06 11:56:58;;;;;;;1.10;0.70;;;22.20;77.20;;;;;;5125635;28;20031;-37
2021/10/06 11:59:26;;;;;;;0.70;0.70;;;22.20;77.20;;;;;;5107149;28;20053;-37
2021/10/06 12:02:00;;;;;;;0.70;0.70;;;22.20;77.20;;;;;;5125430;28;20024;-37
2021/10/06 12:04:28;;;;;;;1.25;0.90;;;22.20;77.20;;;;;;5125485;28;20036;-37
2021/10/06 12:07:00;;;;;;;0.93;0.80;;;22.10;77.20;;;;;;5107438;28;20066;-37
2021/10/06 12:09:47;;;;;;;0.73;0.70;;;22.10;77.10;;;;;;5116696;28;20046;-37
2021/10/06 12:12:17;;;;;;;1.00;1.00;;;22.20;77.20;;;;;;5091375;28;20116;-37
2021/10/06 12:14:48;;;;;;;0.90;0.80;;;22.20;77.20;;;;;;5104932;28;20044;-37
2021/10/06 12:17:36;;;;;;;0.93;0.88;;;22.10;77.30;;;;;;5104845;28;20050;-37
2021/10/06 12:20:19;;;;;;;0.80;0.80;;;22.10;77.90;;;;;;5104470;28;20051;-37
2021/10/06 12:23:04;;;;;;;0.90;0.80;;;22.20;77.30;;;;;;5121297;28;20031;-37
2021/10/06 12:25:31;;;;;;;1.35;0.80;;;22.10;77.20;;;;;;5124838;28;20046;-37
2021/10/06 12:28:18;;;;;;;1.92;0.90;;;22.20;77.30;;;;;;5106591;28;20042;-37
2021/10/06 12:30:50;;;;;;;1.20;0.80;;;22.10;77.20;;;;;;5122826;28;20057;-37
2021/10/06 12:33:17;;;;;;;1.25;0.90;;;22.10;77.20;;;;;;5107626;28;20027;-37
2021/10/06 12:35:43;;;;;;;0.95;0.73;;;22.10;77.20;;;;;;5124961;28;20038;-36
2021/10/06 12:38:09;;;;;;;0.90;0.90;;;22.10;77.20;;;;;;5124597;28;20031;-37
2021/10/06 12:40:41;;;;;;;0.80;0.80;;;22.10;77.30;;;;;;5124400;28;20506;-37
2021/10/06 12:43:17;;;;;;;0.82;0.60;;;22.10;77.30;;;;;;5124723;28;20031;-36
2021/10/06 12:46:05;;;;;;;0.80;0.80;;;22.10;77.20;;;;;;5124365;28;20028;-37
2021/10/06 12:48:54;;;;;;;0.80;0.80;;;22.10;77.20;;;;;;5124655;28;20027;-36
2021/10/06 12:51:23;;;;;;;0.90;0.65;;;22.10;77.10;;;;;;5119820;28;20059;-37